KOGD/OGD METAR and TAF weather

Enter ICAO airport designator
Station Type Date Time Source
KOGD METAR 2023/02/05 14:53 UTC NOAA

KOGD 051453Z 00000KT 10SM BKN110 00/M06 A2990 RMK AO2 SLP137 T00001061 55015 $


Station Type Date Time Source
KOGD Decoded METAR 2023/02/05 14:53 UTC NOAA

OGDEN-HINCKLEY AIRPORT, UT, United States (KOGD) 41-12N 112-01W 1353M
Feb 05, 2023 - 09:53 AM EST / 2023.02.05 1453 UTC
Wind: Calm:0
Visibility: 10 mile(s):0
Sky conditions: mostly cloudy
Temperature: 32.0 F (0.0 C)
Dew Point: 21.0 F (-6.1 C)
Relative Humidity: 63%
Pressure (altimeter): 29.9 in. Hg (1012 hPa)
Pressure tendency: 0.04 inches (1.5 hPa) lower than three hours ago
ob: KOGD 051453Z 00000KT 10SM BKN110 00/M06 A2990 RMK AO2 SLP137 T00001061 55015
cycle: 15

Station Type Date Time Source
KOGD TAF 2023/02/05 12:40 UTC NOAA

TAF KOGD 051138Z 0512/0612 18004KT 4SM HZ BKN200
FM051600 17005KT 5SM HZ VCSH SCT060 OVC100
FM051800 17005KT 4SM -SN BR BKN020 OVC060
FM060000 18005KT 6SM BR BKN020 OVC060
FM060600 23005KT 6SM BR SCT060

Example: see airport list